MMPQ

Palenque International Airport

Mexico
TAF MMPQ 211656Z 2118/2218 09012KT P6SM SCT030 TEMPO 2122/2202 4SM TSRA BKN025CB FM220600 00000KT P6SM SKC FM221200 00000KT 3SM BR SCT010 FM221500 09010KT P6SM SCT020
Issued Valid From Valid To
Jul-21 @ 16:56 UTC
(6 hours ago)
Jul-21 @ 18:00 UTC
(5 hours ago)
Jul-22 @ 18:00 UTC
(in 19 hours)
Jul-21 @ 18:00 to Jul-22 @ 06:00
TAF MMPQ 211656Z 2118/2218 09012KT P6SM SCT030
Wind Visibility Clouds
90° at 12 knots Greater than 6 miles
  • Scattered at 3,000' AGL
Temporary Jul-21 @ 22:00 to Jul-22 @ 02:00
TEMPO 2122/2202 4SM TSRA BKN025CB
Visibility Clouds Conditions
4 miles
  • Broken at 2,500' AGL
  • Thunderstorm
  • Rain
From Jul-22 @ 06:00 to Jul-22 @ 12:00
FM220600 00000KT P6SM SKC
Visibility Clouds
Greater than 6 miles
  • Clear skies
From Jul-22 @ 12:00 to Jul-22 @ 15:00
FM221200 00000KT 3SM BR SCT010
Visibility Clouds Conditions
3 miles
  • Scattered at 1,000' AGL
  • Mist
From Jul-22 @ 15:00 to Jul-22 @ 18:00
FM221500 09010KT P6SM SCT020
Wind Visibility Clouds
90° at 10 knots Greater than 6 miles
  • Scattered at 2,000' AGL
TAF MMPQ 211656Z 2118/2218 09012KT P6SM SCT030 TEMPO 2122/2202 4SM TSRA BKN025CB FM220600 00000KT P6SM SKC FM221200 00000KT 3SM BR SCT010 FM221500 09010KT P6SM SCT020
Issued Jul-21 @ 16:56 UTC
(6 hours ago)
Valid From Jul-21 @ 18:00 UTC
(5 hours ago)
Valid To Jul-22 @ 18:00 UTC
(in 19 hours)
Jul-21 @ 18:00 - Jul-22 @ 06:00
Wind Visibility
90° at 12 knots Greater than 6 miles
Clouds
  • Scattered at 3,000' AGL
Temporary Jul-21 @ 22:00 - Jul-22 @ 02:00
Clouds
  • Broken at 2,500' AGL
Conditions
  • Thunderstorm
  • Rain
From Jul-22 @ 06:00 - Jul-22 @ 12:00
Clouds
  • Clear skies
From Jul-22 @ 12:00 - Jul-22 @ 15:00
Clouds
  • Scattered at 1,000' AGL
Conditions
  • Mist
From Jul-22 @ 15:00 - Jul-22 @ 18:00
Wind Visibility
90° at 10 knots Greater than 6 miles
Clouds
  • Scattered at 2,000' AGL